Terminal Aerodrome Forecast
Issued by NWS

Home | Current Version | Previous Version | Text Only | Print | Product List | Glossary On
Versions: 1 2 3 4 5 6 7 8 9 10 11 12 13 14 15 16 17 18 19
000
FTUS43 KMQT 200500
TAFSAW
TAF
KSAW 200537Z 2006/2106 26004KT P6SM OVC050
     FM200900 29004KT P6SM OVC030
     FM201000 33006KT P6SM OVC015
     FM201200 33008KT P6SM -SHRA OVC010
     FM210100 01010KT P6SM -SHRA OVC006
      AMD LTD TO CLD VIS AND WIND TIL 201000=

USA.gov is the U.S. government's official web portal to all federal, state and local government web resources and services.